Pagina principale
METAR-TAF:

METAR-TAF

Aeroporti :

Morrisville-Stowe State Airport

Morrisville, Vermont, Stati Uniti

latitudine: 44-32-10N, longitudine: 072-36-58W, altezza: 223 m

Osservazione

Il bollettino è stato emesso 29 minuti fa, alle 22:54 UTC
Vento 4 kt da direzioni variabili
Temperature -7°C
Umidità 73%
Pressione 1018 hPa
Visibilità: 11.3 km
Nuvoloso ad un'altezza di 3000 ft
Cielo coperto ad un'altezza di 3400 ft
neve debole

METAR: KMVL 182254Z AUTO VRB04KT 7SM -SN BKN030 OVC034 M07/M11 A3005 RMK AO2 SLP191 P0000 T10721111

Ora: 18:23 (23:23 UTC)


TAF: mancante

Osservazioni e previsioni meteorologiche di più di 4000 aeroporti (messaggi METAR e TAF).

Le stazioni disponibili sono rappresentate dai dischi gialli e rossi sulla carta.

Puntare il mouse per vedere il nome della stazione.

Clicca sopra per visualizzare le osservazioni e previsioni meteorologiche.

Per cambiare la mappa : fare clic sui pulsanti verdi con una croce nera per ingrandire, il pulsante verde con un trattino per diminuire, o sulla freccia verde per le mappe adiacenti.


METAR-TAF: